Haynesville, Virginia
Current Conditions -  °F | °C
As of 7:35 PM on Monday 24 Nov 2014 (Local Time) from KXSA Reporting Station
Scattered Clouds Scattered Clouds  
Wind Chill: 68°   Ceiling: Unl
Heat Index: 68°   Visibility: 10mi
Dew Point: 58°   Wind: 8mph
Humidity: 71%   Direction: 180°S
Pressure: 29.79"   Gusts: NA
Location:  37.95°N, 76.66°W
Report Text: KXSA 250035Z AUTO 18007KT 10SM SCT120 20/15 A2979 RMK AO2 LTG DSNT SE T02000145
Loading
Personal Weather Stations






























Interactive Weather Map New forecast layout! Learn more

10-Day Weather Forecast

Advertisements
Track Severe Weather on mobile